メインページ
METAR-TAF:

METAR-TAF

空港 :

アルジェ, アルジェリア

ウアリ・ブーメディアン空港

緯度: 36-43N, 経度: 003-15E, 海抜: 25m

現時点の気象観測

当レポートは10分前の14:30(UTC)に作成
北/北東の風 12kt、から北東の間で変化する
気温 31°C
湿度 46%
気圧 1014 hPa
視程10km以上
高度3300ftの雲はほとんどない
高度23000ftの雲は散在している

METAR: DAAG 261430Z 02012KT 350V050 9999 FEW033 SCT230 31/18 Q1014

時間: 15:40 (14:40 UTC)

予報

当レポートは3時間40分前の11:00(UTC)に作成
予報は26日の 12時(UTC)から 27日の 12時(UTC)まで有効
北/北東の風 12kt
視程10km以上
高度2600ftの雲はほとんどない
26日の 20時(UTC)から 26日の 23時(UTC)まで徐々に
変向風 2kt
27日の 06時(UTC)から 27日の 09時(UTC)まで徐々に
北/北西の風 10kt

TAF: DAAG 261100Z 2612/2712 02012KT 9999 FEW026 BECMG 2620/2623 VRB02KT BECMG 2706/2709 34010KT

4,000以上の空港の気象観測と天気予報(METAR報とTAF報)

利用可能な観測所は地図上に黄色い丸と赤い丸で示す。

丸の上にカーソルを重ねると観測所名を参照できる。

次にクリックすると気象観測と天気予報を参照できる。

マップの切り替え:黒色「×」印の緑ボタンをクリックして拡大、「-」印の緑ボタンをクリックして縮小、緑色の三角印をクリックして隣りの地図に切り替え


METAR-TAF: